Aviation Digital Data Service (ADDS)

Output produced by METARs form (0836 UTC 07 May 2015)
found at http://www.aviationweather.gov/adds/metars/
 
KDUJ 070830Z AUTO 09006KT 1/4SM FG VV002 14/13 A3018 RMK AO2 T01440128
KDUJ 070753Z AUTO 10006KT 1/2SM FG VV002 14/13 A3018 RMK AO2 SLP212 T01440128
KDUJ 070707Z AUTO 10004KT 3/4SM BR VV002 14/13 A3018 RMK AO2 T01440128
KDUJ 070653Z AUTO 10003KT 1 1/4SM BR OVC002 14/13 A3018 RMK AO2 SLP213 T01440128
KDUJ 070628Z AUTO 10003KT 1 3/4SM BR OVC002 14/13 A3019 RMK AO2 T01440128
KDUJ 070553Z AUTO 10004KT 2 1/2SM BR OVC004 14/13 A3020 RMK AO2 SLP219 T01440128 10183 20133 57003
KDUJ 070548Z AUTO 10004KT 2 1/2SM BR OVC004 14/13 A3020 RMK AO2
KDUJ 070537Z AUTO 10004KT 3SM BR OVC005 14/13 A3020 RMK AO2 T01390128
KDUJ 070522Z AUTO 10005KT 2SM BR BKN005 14/12 A3021 RMK AO2 T01390122
KDUJ 070515Z AUTO 10005KT 3/4SM BR VV006 14/12 A3021 RMK AO2 T01390122
KDUJ 070506Z AUTO 08005KT 1 1/4SM BR FEW002 BKN007 13/12 A3021 RMK AO2 T01330117
KDUJ 070453Z AUTO 10006KT 2SM BR FEW007 14/12 A3021 RMK AO2 SLP223 T01390122 402280133
KDUJ 070445Z AUTO 10005KT 1 3/4SM BR SCT007 13/12 A3021 RMK AO2 T01330122
KDUJ 070434Z AUTO 09006KT 2 1/2SM BR CLR 14/12 A3021 RMK AO2 T01390122
KDUJ 070353Z AUTO 11007KT 5SM BR CLR 14/13 A3021 RMK AO2 SLP224 T01440128
KDUJ 070253Z AUTO 09006KT 9SM CLR 15/13 A3021 RMK AO2 SLP224 T01500133 51005
KDUJ 070153Z AUTO 11006KT 10SM BKN034 16/13 A3021 RMK AO2 SLP224 T01610133
KDUJ 070053Z AUTO 10005KT 10SM FEW036 17/13 A3020 RMK AO2 SLP221 T01670133
KDUJ 062353Z AUTO 08007KT 10SM FEW025 18/13 A3019 RMK AO2 SLP219 T01830133 10228 20183 51002
KDUJ 062253Z AUTO 07006KT 10SM FEW023 BKN036 BKN050 20/14 A3019 RMK AO2 SLP218 T02000139
KDUJ 062240Z AUTO 07006KT 10SM FEW024 OVC034 20/14 A3020 RMK AO2 T02000139
KDUJ 062209Z AUTO 06006KT 10SM BKN024 OVC045 22/14 A3020 RMK AO2 T02170144
KDUJ 062153Z AUTO 07007KT 10SM FEW026 SCT047 22/14 A3019 RMK AO2 SLP216 T02170144
KDUJ 062053Z AUTO 06009KT 10SM SCT024 OVC036 21/14 A3019 RMK AO2 LTG DSNT S SLP215 T02110144 56013
KDUJ 062037Z AUTO 05007KT 10SM BKN025 BKN033 OVC060 22/14 A3019 RMK AO2 T02170144
KDUJ 061953Z AUTO 04007KT 10SM FEW040 BKN060 23/15 A3020 RMK AO2 LTG DSNT S AND SW SLP216 T02280150
KDUJ 061853Z AUTO 04006KT 10SM FEW034 FEW043 OVC070 22/14 A3021 RMK AO2 LTG DSNT SW SLP224 T02170144
KDUJ 061753Z AUTO 05005KT 10SM FEW017 SCT023 OVC036 21/14 A3023 RMK AO2 SLP229 60000 T02060144 10211 20144 58007
KDUJ 061705Z AUTO 34003KT 10SM BKN024 BKN029 BKN090 20/14 A3024 RMK AO2 T02000139
KDUJ 061653Z AUTO VRB03KT 10SM FEW020 SCT029 BKN090 20/14 A3024 RMK AO2 SLP233 T02000139
KDUJ 061553Z AUTO 11004KT 10SM FEW011 BKN050 BKN080 19/14 A3025 RMK AO2 SLP238 T01890144
KDUJ 061538Z AUTO VRB04KT 10SM SCT009 BKN050 OVC075 18/14 A3025 RMK AO2 T01830139
KDUJ 061453Z AUTO 10004KT 10SM BKN005 BKN060 BKN090 18/14 A3025 RMK AO2 CIG 005V009 SLP237 60000 T01780144 58001
KDUJ 061451Z AUTO 09004KT 10SM BKN005 BKN060 BKN085 18/14 A3025 RMK AO2
KDUJ 061400Z AUTO 13003KT 4SM BR OVC002 17/14 A3025 RMK AO2 T01670144
KDUJ 061353Z AUTO 15003KT 2 1/2SM BR OVC002 16/14 A3025 RMK AO2 SLP238 T01610144
KDUJ 061349Z AUTO 11004KT 2 1/2SM BR OVC002 16/14 A3025 RMK AO2
KDUJ 061342Z AUTO VRB03KT 1 3/4SM BR OVC002 16/14 A3025 RMK AO2 T01610144
KDUJ 061332Z AUTO 14004KT 2SM BR OVC002 16/14 A3025 RMK AO2 T01560144
KDUJ 061325Z AUTO 12004KT 3/4SM BR VV002 16/14 A3025 RMK AO2 T01560144
KDUJ 061300Z AUTO 13006KT 1/4SM FG OVC002 15/14 A3026 RMK AO2 T01500139
KDUJ 061253Z AUTO 12005KT 1 1/4SM BR BKN002 OVC055 15/13 A3026 RMK AO2 RAE1159B42E51 SLP241 P0000 T01500133
KDUJ 061237Z AUTO 13004KT 2 1/2SM BR BKN002 BKN060 BKN075 15/14 A3027 RMK AO2 RAE1159 P0000 T01500139
KDUJ 061211Z AUTO 00000KT 3SM BR FEW001 SCT065 BKN085 15/13 A3027 RMK AO2 RAE1159 P0000 T01500133
KDUJ 061202Z AUTO 15003KT 2 1/2SM BR FEW001 BKN060 OVC085 15/13 A3027 RMK AO2 LTG DSNT SE RAE1159 P0000 T01500133
KDUJ 061153Z AUTO 14003KT 1SM -RA BR BKN065 OVC080 14/13 A3027 RMK AO2 RAB03 SLP246 P0014 60042 70043 T01440133 10150 20144 53010
KDUJ 061136Z AUTO 00000KT 1 1/4SM -RA BR FEW018 FEW046 OVC065 14/13 A3027 RMK AO2 RAB03 P0011 T01440133
KDUJ 061129Z AUTO 00000KT 2SM VCTS -RA BR FEW018 BKN065 OVC085 14/13 A3027 RMK AO2 RAB03 P0010 T01440133
KDUJ 061118Z AUTO 10004KT 3/4SM VCTS RA BR BKN031 BKN065 OVC095 14/13 A3026 RMK AO2 LTG DSNT W RAB03 P0010 T01440133
KDUJ 061109Z AUTO 00000KT 1/4SM VCTS -RA FG BKN015 BKN040 OVC120 14/13 A3026 RMK AO2 LTG DSNT W RAB03 P0003 T01440133
KDUJ 061103Z AUTO 07003KT 1/4SM VCTS -RA FG FEW001 BKN009 OVC110 14/13 A3026 RMK AO2 LTG DSNT W RAB03 P0000 T01440133
KDUJ 061053Z AUTO 06003KT 1/4SM FG BKN002 OVC044 14/13 A3025 RMK AO2 LTG DSNT W RAB13E27 SLP238 P0002 T01440133
KDUJ 061050Z AUTO 00000KT 1/4SM FG BKN002 OVC044 14/13 A3026 RMK AO2 RAB13E27 P0002
KDUJ 061019Z AUTO 15004KT 1 1/4SM -RA BR BKN002 BKN008 OVC040 14/13 A3025 RMK AO2 RAB13 P0002 T01440133
KDUJ 060953Z AUTO 13003KT 2SM BR BKN002 OVC041 14/13 A3024 RMK AO2 RAE0858 SLP235 P0000 T01440133
KDUJ 060940Z AUTO 13005KT 2 1/2SM BR BKN002 BKN046 OVC060 14/13 A3024 RMK AO2 RAE0858 P0000 T01440133
KDUJ 060932Z AUTO 13004KT 4SM BR SCT002 BKN046 OVC060 15/13 A3024 RMK AO2 RAE0858 P0000 T01500133
KDUJ 060853Z AUTO 12004KT 3SM -RA BR FEW033 BKN043 OVC070 14/13 A3024 RMK AO2 RAE0756B25 SLP232 P0012 60026 T01440128 58003
KDUJ 060849Z AUTO 11004KT 2SM -RA BR SCT036 BKN046 OVC070 14/13 A3024 RMK AO2 RAE0756B25 P0012
KDUJ 060842Z AUTO 00000KT 3SM BR SCT034 BKN046 OVC055 14/13 A3024 RMK AO2 RAE0756B25E39 P0008 T01440133
KDUJ 060833Z AUTO 11004KT 2 1/2SM -RA BR FEW039 BKN048 OVC055 14/13 A3024 RMK AO2 RAE0756B25 P0007 T01440133
KDUJ 060800Z AUTO 10004KT 3SM BR BKN060 BKN085 OVC110 14/13 A3024 RMK AO2 RAE0756 P0000 T01440128
KDUJ 060753Z AUTO 08004KT 2 1/2SM -RA BR BKN060 BKN075 OVC110 14/13 A3024 RMK AO2 SLP235 P0011 T01440128
KDUJ 060749Z AUTO 07005KT 2 1/2SM -RA BR FEW037 SCT055 OVC070 14/13 A3024 RMK AO2 P0011
KDUJ 060653Z AUTO 08005KT 5SM -RA BR FEW034 SCT049 OVC085 15/13 A3025 RMK AO2 LTG DSNT W RAB19 SLP237 P0003 T01500133
KDUJ 060553Z AUTO 08006KT 5SM BR FEW031 SCT075 OVC095 15/13 A3025 RMK AO2 SLP237 T01500128 10194 20150 56005
KDUJ 060453Z AUTO 09004KT 7SM FEW110 15/13 A3026 RMK AO2 SLP240 T01500128 402170133
KDUJ 060353Z AUTO 08005KT 7SM FEW120 16/13 A3026 RMK AO2 SLP240 T01560133
KDUJ 060253Z AUTO 06005KT 10SM SCT065 BKN110 16/13 A3026 RMK AO2 SLP243 T01560133 51010
KDUJ 060153Z AUTO 06006KT 10SM FEW035 BKN085 OVC110 17/13 A3026 RMK AO2 SLP242 T01670133
KDUJ 060053Z AUTO 29003KT 10SM SCT039 BKN046 OVC080 18/14 A3025 RMK AO2 SLP237 T01830139
KDUJ 052353Z AUTO 26007KT 9SM OVC090 19/13 A3023 RMK AO2 SLP232 T01940133 10217 20194 53002
KDUJ 052253Z AUTO 25006KT 10SM FEW040 BKN065 OVC085 21/14 A3022 RMK AO2 SLP227 T02060139
KDUJ 052153Z AUTO 26006KT 10SM SCT025 BKN032 OVC090 21/14 A3022 RMK AO2 SLP229 T02110139
KDUJ 052053Z AUTO 24008KT 10SM OVC090 21/14 A3023 RMK AO2 SLP229 T02110139 58015